Time;durP1;ratioP1;P1;durP2;ratioP2;P2;SDS_P1;SDS_P2;PMS_P1;PMS_P2;Temp;Humidity;BMP_temperature;BMP_pressure;BME280_temperature;BME280_humidity;BME280_pressure;Samples;Min_cycle;Max_cycle;Signal;HPM_P1;HPM_P2
2022/11/10 00:02:25;;;;;;;4.68;1.05;;;;;;;11.46;100.00;101235.88;6174242;28;20054;-72
2022/11/10 00:05:26;;;;;;;2.38;1.02;;;;;;;11.42;100.00;101245.69;6173978;28;20058;-71
2022/11/10 00:08:29;;;;;;;2.17;1.10;;;;;;;11.42;100.00;101245.69;6174264;28;20043;-72
2022/11/10 00:11:31;;;;;;;2.80;1.35;;;;;;;11.35;100.00;101244.28;6196250;23;20049;-71
2022/11/10 00:17:51;;;;;;;5.05;1.20;;;;;;;11.28;100.00;101254.25;6173894;28;20051;-72
2022/11/10 00:20:52;;;;;;;3.70;1.27;;;;;;;11.24;100.00;101259.75;6196361;28;20510;-72
2022/11/10 00:23:55;;;;;;;4.13;1.92;;;;;;;11.19;100.00;101265.22;6197508;28;20050;-71
2022/11/10 00:26:57;;;;;;;1.48;0.95;;;;;;;11.15;100.00;101268.94;6197959;28;20054;-72
2022/11/10 00:29:58;;;;;;;1.33;1.00;;;;;;;11.08;100.00;101272.75;6197421;28;20403;-72
2022/11/10 00:33:00;;;;;;;3.33;1.30;;;;;;;11.05;100.00;101279.03;6198029;28;20055;-72
2022/11/10 00:36:01;;;;;;;5.60;1.45;;;;;;;11.02;100.00;101281.78;6197524;28;20053;-71
2022/11/10 00:39:04;;;;;;;2.95;1.50;;;;;;;10.96;100.00;101286.50;6197869;28;20046;-71
2022/11/10 00:42:06;;;;;;;5.28;1.08;;;;;;;10.94;100.00;101286.53;6197228;28;20417;-71
2022/11/10 00:45:09;;;;;;;4.18;0.82;;;;;;;10.89;100.00;101292.03;6197640;28;20510;-72
2022/11/10 00:48:11;;;;;;;5.10;1.00;;;;;;;10.88;100.00;101295.59;6197871;28;20050;-71
2022/11/10 00:51:20;;;;;;;2.78;1.15;;;;;;;10.86;100.00;101293.97;6197202;28;20057;-71
2022/11/10 00:54:23;;;;;;;2.65;1.23;;;;;;;10.84;100.00;101303.69;6197516;28;20061;-72
2022/11/10 00:57:24;;;;;;;9.07;1.27;;;;;;;10.77;100.00;101305.75;6197472;28;20046;-72
2022/11/10 01:00:26;;;;;;;6.15;1.38;;;;;;;10.75;100.00;101304.94;6197548;28;20060;-73
2022/11/10 01:03:27;;;;;;;3.28;1.08;;;;;;;10.73;100.00;101304.19;6197435;28;20498;-71
2022/11/10 01:06:29;;;;;;;2.25;1.00;;;;;;;10.73;100.00;101305.94;6197278;28;20053;-72
2022/11/10 01:09:31;;;;;;;9.15;1.42;;;;;;;10.69;100.00;101304.38;6197260;28;20065;-72
2022/11/10 01:12:33;;;;;;;3.17;1.13;;;;;;;10.69;100.00;101312.25;6197142;28;20510;-72
2022/11/10 01:15:38;;;;;;;4.30;1.17;;;;;;;10.65;100.00;101312.38;6197089;28;20055;-72
2022/11/10 01:18:40;;;;;;;6.43;1.30;;;;;;;10.63;100.00;101318.66;6197294;28;20413;-71
2022/11/10 01:21:41;;;;;;;5.72;1.55;;;;;;;10.64;100.00;101320.34;6197247;28;20055;-71
2022/11/10 01:24:44;;;;;;;5.45;1.50;;;;;;;10.62;100.00;101330.91;6196935;28;20413;-72
2022/11/10 01:27:46;;;;;;;4.25;1.30;;;;;;;10.58;100.00;101318.88;6197424;28;20052;-72
2022/11/10 01:30:47;;;;;;;3.25;1.50;;;;;;;10.54;100.00;101321.69;6196947;28;20529;-72
2022/11/10 01:33:49;;;;;;;6.70;1.30;;;;;;;10.51;100.00;101325.28;6198394;28;20149;-72
2022/11/10 01:36:50;;;;;;;6.47;2.00;;;;;;;10.53;100.00;101343.63;6201751;28;20046;-72
2022/11/10 01:39:53;;;;;;;4.72;1.80;;;;;;;10.50;100.00;101339.38;6201234;28;20391;-72
2022/11/10 01:42:57;;;;;;;11.50;1.90;;;;;;;10.43;100.00;101339.69;6201752;28;20054;-72
2022/11/10 01:46:00;;;;;;;8.85;1.45;;;;;;;10.37;100.00;101343.44;6201203;28;20053;-72
2022/11/10 01:49:03;;;;;;;3.47;1.65;;;;;;;10.30;100.00;101350.72;6201597;28;20138;-72
2022/11/10 01:52:09;;;;;;;5.10;1.45;;;;;;;10.31;100.00;101354.19;6200979;28;20054;-72
2022/11/10 01:55:13;;;;;;;2.80;1.15;;;;;;;10.29;100.00;101356.88;6200855;28;20421;-72
2022/11/10 01:58:18;;;;;;;1.58;1.08;;;;;;;10.29;100.00;101362.13;6201443;28;20052;-72
2022/11/10 02:01:19;;;;;;;7.68;1.60;;;;;;;10.27;100.00;101363.16;6200873;28;20070;-72
2022/11/10 02:04:21;;;;;;;5.22;1.35;;;;;;;10.26;100.00;101361.41;6200843;28;20050;-71
2022/11/10 02:07:23;;;;;;;3.83;1.35;;;;;;;10.21;100.00;101361.56;6205342;28;20061;-71
2022/11/10 02:10:26;;;;;;;4.20;1.58;;;;;;;10.21;100.00;101355.47;6213030;28;20057;-72
2022/11/10 02:13:27;;;;;;;4.20;1.75;;;;;;;10.17;100.00;101365.25;6215566;28;20050;-72
2022/11/10 02:16:29;;;;;;;2.53;1.17;;;;;;;10.11;100.00;101370.75;6224601;28;20520;-72
2022/11/10 02:19:38;;;;;;;7.10;1.30;;;;;;;10.08;100.00;101371.75;6225320;28;20050;-72
2022/11/10 02:22:41;;;;;;;;;;;;;;;10.10;100.00;101374.31;6225368;28;20053;-71
2022/11/10 02:25:42;;;;;;;2.35;1.40;;;;;;;10.07;100.00;101379.69;6224624;28;19921;-72
2022/11/10 02:28:44;;;;;;;5.10;1.95;;;;;;;10.07;100.00;101377.06;6225022;28;20053;-71
2022/11/10 02:31:45;;;;;;;3.35;1.50;;;;;;;10.01;100.00;101388.66;6215740;28;20046;-72
2022/11/10 02:34:47;;;;;;;5.07;1.83;;;;;;;10.00;100.00;101384.34;6217414;28;20154;-71
2022/11/10 02:37:50;;;;;;;6.95;2.25;;;;;;;10.00;100.00;101394.84;6224863;28;20054;-71
2022/11/10 02:40:51;;;;;;;2.70;1.65;;;;;;;10.01;100.00;101391.28;6224316;28;20065;-72
2022/11/10 02:43:55;;;;;;;4.47;1.77;;;;;;;9.96;100.00;101397.66;6223729;28;20108;-71
2022/11/10 02:46:56;;;;;;;4.70;1.73;;;;;;;9.92;100.00;101407.41;6224300;28;20416;-72
2022/11/10 02:49:57;;;;;;;10.27;3.15;;;;;;;9.88;100.00;101403.19;6224206;28;20050;-72
2022/11/10 02:53:00;;;;;;;5.25;2.42;;;;;;;9.83;100.00;101407.78;6224461;28;20046;-71
2022/11/10 02:56:02;;;;;;;4.28;1.80;;;;;;;9.78;100.00;101399.25;6224064;28;20064;-72
2022/11/10 02:59:03;;;;;;;4.30;1.73;;;;;;;9.77;100.00;101406.25;6224339;28;20049;-71
2022/11/10 03:02:05;;;;;;;7.03;2.38;;;;;;;9.76;100.00;101415.03;6223700;28;20409;-72
2022/11/10 03:05:07;;;;;;;3.38;2.38;;;;;;;9.76;100.00;101416.81;6223633;28;20493;-72
2022/11/10 03:08:09;;;;;;;5.05;2.22;;;;;;;9.73;100.00;101416.94;6221609;28;20057;-72
2022/11/10 03:11:11;;;;;;;3.47;1.98;;;;;;;9.74;100.00;101416.03;6223632;28;20045;-71
2022/11/10 03:14:12;;;;;;;6.38;2.20;;;;;;;9.77;100.00;101423.78;6223620;28;20052;-71
2022/11/10 03:17:14;;;;;;;3.72;1.98;;;;;;;9.75;100.00;101428.22;6223941;28;20050;-71
2022/11/10 03:20:16;;;;;;;6.63;2.15;;;;;;;9.74;100.00;101422.13;6223121;28;20072;-71
2022/11/10 03:23:18;;;;;;;4.38;1.73;;;;;;;9.68;100.00;101425.00;6224037;28;20128;-71
2022/11/10 03:26:21;;;;;;;13.57;2.20;;;;;;;9.67;100.00;101433.75;6223310;28;20046;-71
2022/11/10 03:29:22;;;;;;;3.90;1.83;;;;;;;9.66;100.00;101437.31;6223140;28;20552;-72
2022/11/10 03:32:24;;;;;;;3.10;2.05;;;;;;;9.64;100.00;101450.50;6223160;28;20581;-71
2022/11/10 03:35:25;;;;;;;4.90;2.90;;;;;;;9.61;100.00;101453.22;6222995;28;20391;-72
2022/11/10 03:38:28;;;;;;;3.38;2.50;;;;;;;9.58;100.00;101469.09;6223384;28;20651;-72
2022/11/10 03:41:30;;;;;;;6.93;2.63;;;;;;;9.57;100.00;101463.91;6222814;28;20046;-72
2022/11/10 03:44:31;;;;;;;2.67;1.83;;;;;;;9.57;100.00;101464.75;6223033;28;20050;-72
2022/11/10 03:47:33;;;;;;;5.50;2.13;;;;;;;9.55;100.00;101473.63;6200174;28;20181;-72
2022/11/10 03:50:34;;;;;;;9.95;2.70;;;;;;;9.53;100.00;101480.66;6185767;28;20046;-73
2022/11/10 03:53:37;;;;;;;5.45;2.72;;;;;;;9.52;100.00;101486.84;6184069;28;20050;-71
2022/11/10 03:56:39;;;;;;;5.90;2.63;;;;;;;9.54;100.00;101490.28;6184438;28;20046;-72
2022/11/10 03:59:40;;;;;;;9.23;2.78;;;;;;;9.52;100.00;101486.84;6184480;28;20495;-72
2022/11/10 04:02:42;;;;;;;3.40;2.50;;;;;;;9.53;100.00;101478.91;6184714;28;20050;-73
2022/11/10 04:09:04;;;;;;;7.50;2.83;;;;;;;9.50;100.00;101481.66;6181807;28;20054;-71
2022/11/10 04:15:43;;;;;;;;;;;;;;;9.36;100.00;101495.28;6174388;28;20058;-72
2022/11/10 04:18:45;;;;;;;4.82;2.53;;;;;;;9.33;100.00;101499.78;6174065;28;19929;-72
2022/11/10 04:21:46;;;;;;;6.20;2.30;;;;;;;9.34;100.00;101510.19;6173967;28;20053;-71
2022/11/10 04:24:49;;;;;;;7.50;2.97;;;;;;;9.33;100.00;101507.63;6173717;28;20047;-71
2022/11/10 04:27:50;;;;;;;15.35;3.38;;;;;;;9.31;100.00;101512.06;6174233;28;20051;-72
2022/11/10 04:30:52;;;;;;;7.53;2.83;;;;;;;9.32;100.00;101522.53;6173644;28;20054;-70
2022/11/10 04:33:54;;;;;;;6.55;2.38;;;;;;;9.32;100.00;101530.41;6173458;28;20057;-71
2022/11/10 04:36:56;;;;;;;9.25;2.97;;;;;;;9.30;100.00;101533.97;6173895;28;20057;-72
2022/11/10 04:39:59;;;;;;;7.32;3.10;;;;;;;9.28;100.00;101539.28;6173426;28;20065;-72
2022/11/10 04:43:00;;;;;;;7.47;2.78;;;;;;;9.29;100.00;101542.75;6174039;28;20087;-72
2022/11/10 04:46:03;;;;;;;10.52;3.90;;;;;;;9.30;100.00;101544.47;6173305;28;20423;-72
2022/11/10 04:49:06;;;;;;;8.95;3.10;;;;;;;9.28;100.00;101548.91;6173716;28;20402;-71
2022/11/10 04:52:08;;;;;;;9.23;3.67;;;;;;;9.23;100.00;101556.94;6173279;28;20059;-71
2022/11/10 04:55:10;;;;;;;10.13;3.15;;;;;;;9.19;100.00;101563.19;6173414;28;20051;-71
2022/11/10 04:58:12;;;;;;;17.00;3.33;;;;;;;9.19;100.00;101557.09;6173451;28;20419;-72
2022/11/10 05:01:17;;;;;;;8.80;2.83;;;;;;;9.19;100.00;101568.44;6173376;28;20066;-72
2022/11/10 05:04:19;;;;;;;7.50;2.50;;;;;;;9.19;100.00;101576.31;6173365;28;20066;-72
2022/11/10 05:07:20;;;;;;;5.57;3.22;;;;;;;9.14;100.00;101576.47;6174074;28;20499;-72
2022/11/10 05:10:24;;;;;;;4.75;2.95;;;;;;;9.12;100.00;101583.53;6177989;28;20073;-72
2022/11/10 05:13:26;;;;;;;7.72;3.13;;;;;;;9.12;100.00;101580.91;6178249;28;20134;-71
2022/11/10 05:16:27;;;;;;;7.88;3.47;;;;;;;9.07;100.00;101580.19;6177907;28;20050;-71
2022/11/10 05:19:28;;;;;;;8.00;3.30;;;;;;;9.08;100.00;101587.19;6177892;28;20384;-72
2022/11/10 05:22:30;;;;;;;9.00;3.42;;;;;;;9.05;100.00;101589.91;6177898;28;20055;-71
2022/11/10 05:25:33;;;;;;;5.82;2.95;;;;;;;9.07;100.00;101580.19;6177611;28;20430;-71
2022/11/10 05:28:34;;;;;;;11.90;4.20;;;;;;;9.12;100.00;101586.13;6178061;28;20051;-72
2022/11/10 05:31:36;;;;;;;7.22;3.40;;;;;;;9.15;100.00;101587.81;6177747;28;20054;-71
2022/11/10 05:34:37;;;;;;;12.32;4.47;;;;;;;9.14;100.00;101579.09;6177528;28;20495;-72
2022/11/10 05:37:39;;;;;;;9.05;4.15;;;;;;;9.12;100.00;101594.00;6178001;28;20050;-73
2022/11/10 05:40:42;;;;;;;10.45;3.90;;;;;;;9.15;100.00;101598.31;6177135;28;20053;-72
2022/11/10 05:43:44;;;;;;;8.60;4.22;;;;;;;9.13;100.00;101595.75;6177855;28;20062;-71
2022/11/10 05:46:45;;;;;;;10.05;4.43;;;;;;;9.15;100.00;101609.66;6177433;28;20050;-72
2022/11/10 05:49:46;;;;;;;8.45;4.72;;;;;;;9.16;100.00;101605.25;6177222;28;20418;-71
2022/11/10 05:52:50;;;;;;;7.65;4.30;;;;;;;9.18;100.00;101603.47;6177540;28;20050;-72
2022/11/10 05:55:53;;;;;;;10.68;4.32;;;;;;;9.15;100.00;101607.03;6181561;28;20421;-72
2022/11/10 05:58:54;;;;;;;10.50;4.50;;;;;;;9.20;100.00;101612.13;6201327;28;20061;-71
2022/11/10 06:01:55;;;;;;;9.15;3.90;;;;;;;9.19;100.00;101607.78;6201177;28;20129;-73
2022/11/10 06:04:57;;;;;;;13.27;4.00;;;;;;;9.22;100.00;101618.19;6200869;28;20062;-72
2022/11/10 06:07:59;;;;;;;14.98;4.85;;;;;;;9.20;100.00;101619.13;6201496;28;20046;-72
2022/11/10 06:11:02;;;;;;;9.48;3.97;;;;;;;9.20;100.00;101624.38;6200907;28;20046;-71
2022/11/10 06:14:03;;;;;;;9.88;4.82;;;;;;;9.18;100.00;101639.31;6200881;28;20052;-72
2022/11/10 06:17:05;;;;;;;12.07;5.80;;;;;;;9.14;100.00;101647.28;6201107;28;20054;-71
2022/11/10 06:20:07;;;;;;;10.65;4.95;;;;;;;9.14;100.00;101649.91;6199811;28;20050;-72
2022/11/10 06:23:10;;;;;;;7.70;4.32;;;;;;;9.15;100.00;101661.25;6200841;28;20046;-72
2022/11/10 06:26:13;;;;;;;16.05;5.35;;;;;;;9.17;100.00;101671.66;6200303;28;20061;-71
2022/11/10 06:29:14;;;;;;;10.57;4.75;;;;;;;9.15;100.00;101676.97;6200976;28;20054;-72
2022/11/10 06:32:16;;;;;;;8.70;5.25;;;;;;;9.15;100.00;101684.84;6200159;28;20058;-71
2022/11/10 06:35:18;;;;;;;11.48;4.88;;;;;;;9.15;100.00;101692.72;6200219;28;20434;-71
2022/11/10 06:38:19;;;;;;;6.57;4.70;;;;;;;9.17;100.00;101704.00;6200317;28;20046;-72
2022/11/10 06:41:22;;;;;;;9.32;4.90;;;;;;;9.16;100.00;101686.56;6200500;28;20066;-71
2022/11/10 06:44:23;;;;;;;9.50;5.90;;;;;;;9.16;100.00;101702.28;6200062;28;20053;-72
2022/11/10 06:47:25;;;;;;;10.30;5.43;;;;;;;9.19;100.00;101714.47;6200301;28;20113;-72
2022/11/10 06:50:26;;;;;;;13.60;5.53;;;;;;;9.24;100.00;101721.25;6200014;28;20054;-71
2022/11/10 06:53:28;;;;;;;10.15;6.00;;;;;;;9.30;100.00;101720.19;6200175;28;20046;-71
2022/11/10 06:56:31;;;;;;;12.70;6.32;;;;;;;9.35;100.00;101718.28;6199681;28;20403;-72
2022/11/10 06:59:32;;;;;;;11.20;6.45;;;;;;;9.36;100.00;101728.75;6199910;28;20047;-72
2022/11/10 07:02:33;;;;;;;12.38;7.20;;;;;;;9.40;100.00;101729.47;6199541;28;20046;-72
2022/11/10 07:05:36;;;;;;;13.65;5.72;;;;;;;9.45;100.00;101735.47;6199465;28;20525;-71
2022/11/10 07:08:38;;;;;;;21.33;6.43;;;;;;;9.50;100.00;101751.06;6200055;28;20066;-72
2022/11/10 07:11:40;;;;;;;17.30;7.80;;;;;;;9.54;100.00;101761.41;6199189;28;20058;-72
2022/11/10 07:14:42;;;;;;;22.15;7.05;;;;;;;9.57;100.00;101750.78;6199642;28;20054;-72
2022/11/10 07:17:43;;;;;;;21.35;6.70;;;;;;;9.63;100.00;101763.72;6199537;28;20046;-72
2022/11/10 07:20:45;;;;;;;15.15;7.10;;;;;;;9.68;100.00;101762.72;6199471;28;20088;-71
2022/11/10 07:23:47;;;;;;;15.10;7.45;;;;;;;9.70;100.00;101764.34;6199288;28;20109;-72
2022/11/10 07:26:50;;;;;;;19.65;7.30;;;;;;;9.76;100.00;101768.53;6199502;28;20050;-72
2022/11/10 07:29:51;;;;;;;16.98;6.65;;;;;;;9.75;100.00;101778.19;6198898;28;20046;-71
2022/11/10 07:33:00;;;;;;;18.55;7.70;;;;;;;9.79;100.00;101784.19;6198318;28;20062;-72
2022/11/10 07:36:04;;;;;;;12.73;7.55;;;;;;;9.83;100.00;101791.06;6198935;28;20058;-71
2022/11/10 07:39:05;;;;;;;15.73;7.15;;;;;;;9.83;100.00;101793.69;6199302;28;20054;-70
2022/11/10 07:42:08;;;;;;;12.55;6.68;;;;;;;9.81;100.00;101799.00;6198372;28;20065;-72
2022/11/10 07:45:10;;;;;;;21.70;7.03;;;;;;;9.82;100.00;101813.84;6198552;28;20533;-71
2022/11/10 07:48:12;;;;;;;8.88;5.55;;;;;;;9.89;100.00;101831.09;6199064;28;20053;-71
2022/11/10 07:51:13;;;;;;;22.45;6.28;;;;;;;9.95;100.00;101822.16;6198146;28;20498;-71
2022/11/10 07:54:15;;;;;;;13.95;6.82;;;;;;;10.02;100.00;101826.28;6198630;28;20050;-71
2022/11/10 07:57:18;;;;;;;15.52;7.63;;;;;;;10.06;100.00;101840.19;6198823;28;20057;-71
2022/11/10 08:00:19;;;;;;;18.58;7.63;;;;;;;10.13;100.00;101833.81;6198075;28;20057;-71
2022/11/10 08:03:22;;;;;;;17.15;6.53;;;;;;;10.18;100.00;101842.41;6198732;28;20057;-70
2022/11/10 08:06:23;;;;;;;12.88;7.18;;;;;;;10.23;100.00;101865.88;6198065;28;20575;-71
2022/11/10 08:09:24;;;;;;;17.73;7.10;;;;;;;10.17;100.00;101866.94;6198351;28;20173;-71
2022/11/10 08:12:27;;;;;;;12.93;6.65;;;;;;;10.20;100.00;101860.72;6193949;28;20068;-73
2022/11/10 08:15:30;;;;;;;14.68;7.25;;;;;;;10.23;100.00;101865.88;6199902;28;20061;-72
2022/11/10 08:18:31;;;;;;;15.70;6.47;;;;;;;10.24;100.00;101878.09;6212458;28;20142;-72
2022/11/10 08:21:33;;;;;;;11.57;6.35;;;;;;;10.23;100.00;101887.75;6197886;28;20050;-71
2022/11/10 08:24:34;;;;;;;15.45;5.95;;;;;;;10.28;100.00;101885.00;6197695;28;20050;-73
2022/11/10 08:27:37;;;;;;;19.63;6.75;;;;;;;10.33;100.00;101875.19;6198156;28;20506;-72
2022/11/10 08:30:41;;;;;;;19.35;8.27;;;;;;;10.37;100.00;101869.78;6197613;28;20057;-73
2022/11/10 08:33:42;;;;;;;11.40;5.78;;;;;;;10.41;100.00;101871.41;6204676;28;20050;-72
2022/11/10 08:36:43;;;;;;;20.75;6.78;;;;;;;10.47;100.00;101879.97;6195519;28;20529;-72
2022/11/10 08:39:45;;;;;;;16.80;6.63;;;;;;;10.56;100.00;101887.53;6204898;28;20046;-71
2022/11/10 08:42:57;;;;;;;14.60;5.18;;;;;;;10.59;100.00;101900.59;6212615;28;20161;-72
2022/11/10 08:46:00;;;;;;;11.75;5.50;;;;;;;10.68;100.00;101896.78;6196963;28;20050;-72
2022/11/10 08:49:01;;;;;;;15.55;6.38;;;;;;;10.68;100.00;101894.16;6200310;28;20042;-71
2022/11/10 08:52:03;;;;;;;22.20;7.15;;;;;;;10.69;100.00;101899.34;6214912;28;20069;-72
2022/11/10 08:55:05;;;;;;;10.57;6.10;;;;;;;10.74;100.00;101899.19;6197417;28;20081;-71
2022/11/10 08:58:12;;;;;;;19.75;7.03;;;;;;;10.76;100.00;101907.84;6194030;28;20138;-71
2022/11/10 09:01:13;;;;;;;15.82;6.63;;;;;;;10.77;100.00;101904.34;6196733;28;20517;-71
2022/11/10 09:04:15;;;;;;;14.85;6.47;;;;;;;10.78;100.00;101914.78;6197402;28;20058;-71
2022/11/10 09:07:16;;;;;;;13.18;6.20;;;;;;;10.78;100.00;101917.44;6210613;28;20073;-71
2022/11/10 09:10:18;;;;;;;12.68;6.10;;;;;;;10.76;100.00;101913.97;6203138;28;20126;-72
2022/11/10 09:13:21;;;;;;;16.65;7.43;;;;;;;10.81;100.00;101921.69;6195419;28;20058;-72
2022/11/10 09:16:22;;;;;;;16.92;6.47;;;;;;;10.94;100.00;101915.09;6194972;28;20050;-72
2022/11/10 09:19:23;;;;;;;15.52;6.97;;;;;;;11.06;100.00;101917.28;6195026;28;20050;-72
2022/11/10 09:22:25;;;;;;;17.33;6.45;;;;;;;11.08;100.00;101925.13;6194483;28;20054;-71
2022/11/10 09:25:26;;;;;;;11.05;5.97;;;;;;;11.16;100.00;101925.69;6194555;28;20424;-71
2022/11/10 09:28:29;;;;;;;15.48;6.88;;;;;;;11.21;100.00;101931.66;6196564;28;20430;-72
2022/11/10 09:31:31;;;;;;;10.75;5.68;;;;;;;11.27;100.00;101925.31;6196931;28;20430;-72
2022/11/10 09:34:32;;;;;;;14.48;5.57;;;;;;;11.29;100.00;101923.47;6197011;28;20046;-73
2022/11/10 09:37:38;;;;;;;17.15;4.95;;;;;;;11.37;100.00;101931.94;6197296;28;20047;-69
2022/11/10 09:40:51;;;;;;;14.40;5.32;;;;;;;11.39;100.00;101930.94;6196906;28;20129;-70
2022/11/10 09:44:02;;;;;;;10.10;5.63;;;;;;;11.48;100.00;101936.78;6196862;28;20050;-72
2022/11/10 09:47:07;;;;;;;12.23;5.75;;;;;;;11.48;100.00;101937.66;6197079;28;20141;-71
2022/11/10 09:50:18;;;;;;;13.63;4.78;;;;;;;11.56;100.00;101940.00;6196890;28;20051;-71
2022/11/10 09:53:24;;;;;;;12.27;5.13;;;;;;;11.64;100.00;101945.84;6197172;28;20054;-71
2022/11/10 09:56:31;;;;;;;13.52;5.40;;;;;;;11.65;100.00;101948.41;6200543;28;20061;-71
2022/11/10 09:59:35;;;;;;;11.35;5.13;;;;;;;11.72;100.00;101956.06;6201387;28;20047;-72
2022/11/10 10:02:41;;;;;;;13.45;4.60;;;;;;;11.74;100.00;101955.09;6201329;28;20050;-70
2022/11/10 10:05:55;;;;;;;11.38;5.75;;;;;;;11.81;100.00;101951.31;6201026;28;20506;-72
2022/11/10 10:09:08;;;;;;;15.63;5.22;;;;;;;11.85;100.00;101957.31;6201100;28;20066;-71
2022/11/10 10:12:24;;;;;;;10.93;5.53;;;;;;;11.91;100.00;101965.00;6200778;28;20498;-71
2022/11/10 10:15:38;;;;;;;10.40;4.82;;;;;;;12.02;100.00;101964.56;6200559;28;20055;-73
2022/11/10 10:18:47;;;;;;;12.13;6.28;;;;;;;12.03;100.00;101964.50;6201135;28;20100;-72
2022/11/10 10:22:19;;;;;;;9.57;4.30;;;;;;;12.13;100.00;101959.75;6200303;28;20055;-71
2022/11/10 10:25:23;;;;;;;10.60;4.00;;;;;;;12.23;100.00;101969.00;6200264;28;20422;-72
2022/11/10 10:28:32;;;;;;;10.93;3.97;;;;;;;12.27;100.00;101960.03;6200995;28;20047;-70
2022/11/10 10:31:39;;;;;;;13.07;4.22;;;;;;;12.29;100.00;101970.50;6200166;28;20502;-71
2022/11/10 10:34:43;;;;;;;21.23;4.78;;;;;;;12.34;100.00;101963.25;6200426;28;20434;-72
2022/11/10 10:37:48;;;;;;;12.63;3.78;;;;;;;12.33;100.00;101959.78;6200366;28;20069;-72
2022/11/10 10:40:51;;;;;;;8.30;3.70;;;;;;;12.45;100.00;101955.78;6200187;28;20053;-72
2022/11/10 10:43:56;;;;;;;9.13;3.67;;;;;;;12.60;100.00;101970.94;6199827;28;20494;-72
2022/11/10 10:47:01;;;;;;;20.60;5.63;;;;;;;12.75;100.00;101960.66;6200315;28;20051;-71
2022/11/10 10:50:21;;;;;;;15.10;4.13;;;;;;;12.81;100.00;101969.19;6199777;28;20112;-71
2022/11/10 10:53:24;;;;;;;7.75;3.53;;;;;;;12.98;100.00;101981.63;6200480;28;20057;-72
2022/11/10 10:56:31;;;;;;;5.10;3.75;;;;;;;13.25;100.00;101981.38;6199578;28;20077;-72
2022/11/10 10:59:33;;;;;;;5.55;3.15;;;;;;;13.42;100.00;101995.53;6200136;28;20105;-72
2022/11/10 11:02:36;;;;;;;14.00;3.20;;;;;;;13.35;100.00;101994.13;6199782;28;20054;-72
2022/11/10 11:05:38;;;;;;;7.70;3.17;;;;;;;13.45;100.00;101997.19;6199064;28;20414;-71
2022/11/10 11:08:39;;;;;;;8.40;3.53;;;;;;;13.37;100.00;102000.16;6200005;28;20076;-71
2022/11/10 11:11:45;;;;;;;5.22;2.70;;;;;;;13.45;100.00;102003.34;6199194;28;20050;-72
2022/11/10 11:14:46;;;;;;;5.65;2.92;;;;;;;13.42;100.00;101999.97;6199468;28;20061;-71
2022/11/10 11:17:57;;;;;;;4.28;2.65;;;;;;;13.33;100.00;102018.84;6199465;28;20061;-72
2022/11/10 11:21:05;;;;;;;6.28;2.50;;;;;;;13.11;100.00;102013.63;6198907;28;20065;-71
2022/11/10 11:24:19;;;;;;;10.02;3.00;;;;;;;13.02;100.00;102017.53;6198903;28;20061;-73
2022/11/10 11:27:25;;;;;;;6.68;2.30;;;;;;;13.05;100.00;102022.69;6199395;28;20054;-71
2022/11/10 11:30:37;;;;;;;10.68;3.05;;;;;;;13.11;100.00;102013.63;6198837;28;20093;-71
2022/11/10 11:33:47;;;;;;;3.92;2.05;;;;;;;13.17;100.00;102016.88;6199294;28;20054;-71
2022/11/10 11:36:58;;;;;;;6.57;1.98;;;;;;;13.27;100.00;102022.63;6199345;28;20047;-72
2022/11/10 11:40:14;;;;;;;3.95;2.63;;;;;;;13.30;100.00;102033.03;6198387;28;20425;-72
2022/11/10 11:43:31;;;;;;;5.68;1.90;;;;;;;13.49;100.00;102024.28;6199022;28;20050;-72
2022/11/10 11:46:43;;;;;;;5.88;2.42;;;;;;;13.66;100.00;102027.03;6198665;28;20054;-72
2022/11/10 11:50:15;;;;;;;10.00;2.55;;;;;;;13.78;99.64;102044.13;6198597;28;20498;-73
2022/11/10 11:53:33;;;;;;;6.93;2.10;;;;;;;13.88;98.46;102037.47;6192324;28;20073;-72
2022/11/10 11:56:39;;;;;;;6.53;1.73;;;;;;;13.85;98.88;102040.25;6198399;28;20050;-72
2022/11/10 11:59:56;;;;;;;3.85;1.65;;;;;;;13.82;100.00;102033.34;6198371;28;20046;-72
2022/11/10 12:03:38;;;;;;;3.30;2.00;;;;;;;13.93;97.74;102053.97;6198763;28;20394;-72
2022/11/10 12:06:56;;;;;;;7.18;1.63;;;;;;;13.89;98.45;102055.03;6189929;28;20055;-72
2022/11/10 12:10:10;;;;;;;5.43;1.52;;;;;;;14.03;97.69;102052.59;6201432;28;20042;-71
2022/11/10 12:13:22;;;;;;;6.35;1.55;;;;;;;13.93;98.26;102054.81;6202520;28;20497;-69
2022/11/10 12:16:26;;;;;;;5.40;2.00;;;;;;;14.04;98.75;102058.78;6210203;28;20441;-70
2022/11/10 12:19:38;;;;;;;10.85;1.60;;;;;;;14.07;97.67;102056.81;6201438;28;20050;-70
2022/11/10 12:22:52;;;;;;;10.93;2.13;;;;;;;14.05;96.74;102056.06;6202634;28;20061;-70
2022/11/10 12:26:06;;;;;;;5.57;1.75;;;;;;;13.95;97.20;102053.00;6205588;28;20053;-69
2022/11/10 12:29:18;;;;;;;2.17;1.30;;;;;;;14.00;97.31;102046.63;6198608;28;20518;-70
2022/11/10 12:32:27;;;;;;;2.47;1.55;;;;;;;14.07;97.11;102051.53;6205936;28;20050;-70
2022/11/10 12:35:32;;;;;;;9.83;1.20;;;;;;;14.16;96.39;102055.53;6198259;28;20050;-71
2022/11/10 12:38:42;;;;;;;6.22;1.40;;;;;;;14.18;95.98;102054.56;6213320;28;20056;-71
2022/11/10 12:41:48;;;;;;;6.43;1.83;;;;;;;14.36;94.56;102054.59;6221682;28;20050;-70
2022/11/10 12:45:00;;;;;;;6.70;1.23;;;;;;;14.34;93.89;102044.09;6206430;28;20418;-71
2022/11/10 12:48:03;;;;;;;5.30;0.85;;;;;;;14.39;93.39;102054.44;6208737;28;20049;-70
2022/11/10 12:51:12;;;;;;;7.70;1.08;;;;;;;14.40;93.02;102061.47;6221717;28;20069;-72
2022/11/10 12:54:17;;;;;;;4.20;1.15;;;;;;;14.33;93.32;102067.97;6221618;28;20528;-71
2022/11/10 12:57:23;;;;;;;7.47;1.88;;;;;;;14.26;93.55;102072.69;6222015;28;20506;-71
2022/11/10 13:00:27;;;;;;;3.88;1.27;;;;;;;14.30;94.35;102070.75;6221454;28;20050;-71
2022/11/10 13:03:31;;;;;;;4.20;1.08;;;;;;;14.26;94.14;102078.00;6222102;28;20064;-70
2022/11/10 13:06:34;;;;;;;4.85;1.13;;;;;;;14.23;94.14;102078.13;6210316;28;20050;-69
2022/11/10 13:09:39;;;;;;;6.07;1.30;;;;;;;14.32;94.04;102080.34;6210653;28;20046;-70
2022/11/10 13:12:58;;;;;;;1.95;0.68;;;;;;;14.25;93.48;102094.75;6200439;28;20398;-70
2022/11/10 13:16:00;;;;;;;3.90;1.17;;;;;;;14.19;94.88;102103.84;6205565;28;20061;-71
2022/11/10 13:19:01;;;;;;;2.95;1.27;;;;;;;14.13;94.52;102108.59;6216478;28;20143;-69
2022/11/10 13:22:08;;;;;;;6.88;2.22;;;;;;;14.08;94.74;102113.19;6207195;28;20046;-70
2022/11/10 13:26:01;;;;;;;12.50;1.40;;;;;;;14.04;94.93;102111.66;6197045;28;20438;-70
2022/11/10 13:29:19;;;;;;;6.38;1.58;;;;;;;14.08;95.05;102110.53;6197341;28;20510;-71
2022/11/10 13:32:27;;;;;;;3.25;0.98;;;;;;;14.06;94.89;102107.13;6201695;28;20410;-70
2022/11/10 13:35:50;;;;;;;1.65;0.70;;;;;;;14.09;95.32;102105.22;6201282;28;20058;-71
2022/11/10 13:38:54;;;;;;;6.80;1.23;;;;;;;14.21;93.94;102099.34;6200081;28;20053;-71
2022/11/10 13:42:02;;;;;;;5.50;1.35;;;;;;;14.21;93.96;102103.75;6204400;28;20043;-71
2022/11/10 13:45:29;;;;;;;8.50;1.77;;;;;;;14.19;93.71;102108.28;6206195;28;20093;-71
2022/11/10 13:48:58;;;;;;;7.28;1.38;;;;;;;14.23;94.12;102109.00;6205720;28;20076;-71
2022/11/10 13:52:08;;;;;;;4.55;1.25;;;;;;;14.24;94.25;102110.72;6214924;28;20056;-71
2022/11/10 13:55:21;;;;;;;7.82;1.17;;;;;;;14.18;93.94;102122.44;6225740;28;20054;-71
2022/11/10 13:58:26;;;;;;;6.70;1.50;;;;;;;14.16;94.31;102122.50;6209561;28;20432;-71
2022/11/10 14:01:30;;;;;;;3.35;1.60;;;;;;;14.14;94.61;102108.50;6209417;28;20047;-72
2022/11/10 14:04:41;;;;;;;4.85;1.25;;;;;;;14.17;94.68;102115.41;6201092;28;20047;-71
2022/11/10 14:07:45;;;;;;;5.28;1.38;;;;;;;14.14;94.25;102119.06;6202678;28;20431;-71
2022/11/10 14:10:50;;;;;;;5.70;1.48;;;;;;;14.14;94.52;102111.13;6200122;28;20061;-72
2022/11/10 14:14:00;;;;;;;8.27;1.27;;;;;;;14.14;95.20;102115.56;6202579;28;20042;-71
2022/11/10 14:17:03;;;;;;;4.18;1.10;;;;;;;14.15;94.81;102118.13;6198856;28;20053;-71
2022/11/10 14:20:21;;;;;;;7.40;0.90;;;;;;;14.14;94.92;102115.56;6203888;28;20046;-71
2022/11/10 14:23:28;;;;;;;2.87;1.17;;;;;;;14.16;94.35;102121.63;6214805;28;20056;-71